sensor_id;sensor_type;location;lat;lon;timestamp;temperature;humidity
18287;DHT22;9269;50.838;12.094;2023-08-06T00:00:07;21.80;47.70
18287;DHT22;9269;50.838;12.094;2023-08-06T00:02:39;21.80;47.80
18287;DHT22;9269;50.838;12.094;2023-08-06T00:05:09;21.80;48.00
18287;DHT22;9269;50.838;12.094;2023-08-06T00:07:42;21.80;47.70
18287;DHT22;9269;50.838;12.094;2023-08-06T00:10:11;21.70;47.50
18287;DHT22;9269;50.838;12.094;2023-08-06T00:12:45;21.70;47.80
18287;DHT22;9269;50.838;12.094;2023-08-06T00:15:19;21.70;47.80
18287;DHT22;9269;50.838;12.094;2023-08-06T00:17:50;21.70;48.20
18287;DHT22;9269;50.838;12.094;2023-08-06T00:20:25;21.70;47.80
18287;DHT22;9269;50.838;12.094;2023-08-06T00:23:01;21.70;48.00
18287;DHT22;9269;50.838;12.094;2023-08-06T00:25:33;21.60;47.60
18287;DHT22;9269;50.838;12.094;2023-08-06T00:28:05;21.60;47.80
18287;DHT22;9269;50.838;12.094;2023-08-06T00:30:37;21.60;47.80
18287;DHT22;9269;50.838;12.094;2023-08-06T00:33:13;21.60;47.50
18287;DHT22;9269;50.838;12.094;2023-08-06T00:35:46;21.60;47.80
18287;DHT22;9269;50.838;12.094;2023-08-06T00:38:17;21.60;47.70
18287;DHT22;9269;50.838;12.094;2023-08-06T00:40:48;21.60;47.70
18287;DHT22;9269;50.838;12.094;2023-08-06T00:43:24;21.60;47.30
18287;DHT22;9269;50.838;12.094;2023-08-06T00:45:59;21.60;47.60
18287;DHT22;9269;50.838;12.094;2023-08-06T00:48:31;21.60;47.20
18287;DHT22;9269;50.838;12.094;2023-08-06T00:51:02;21.60;47.10
18287;DHT22;9269;50.838;12.094;2023-08-06T00:53:34;21.50;46.90
18287;DHT22;9269;50.838;12.094;2023-08-06T00:56:04;21.60;47.20
18287;DHT22;9269;50.838;12.094;2023-08-06T00:58:38;21.60;46.80
18287;DHT22;9269;50.838;12.094;2023-08-06T01:01:13;21.60;46.80
18287;DHT22;9269;50.838;12.094;2023-08-06T01:03:46;21.60;46.50
18287;DHT22;9269;50.838;12.094;2023-08-06T01:06:31;21.50;46.70
18287;DHT22;9269;50.838;12.094;2023-08-06T01:09:13;21.50;46.60
18287;DHT22;9269;50.838;12.094;2023-08-06T01:11:57;21.60;46.60
18287;DHT22;9269;50.838;12.094;2023-08-06T01:14:33;21.50;46.20
18287;DHT22;9269;50.838;12.094;2023-08-06T01:17:10;21.50;46.00
18287;DHT22;9269;50.838;12.094;2023-08-06T01:19:42;21.50;46.10
18287;DHT22;9269;50.838;12.094;2023-08-06T01:22:17;21.50;46.60
18287;DHT22;9269;50.838;12.094;2023-08-06T01:24:49;21.50;46.70
18287;DHT22;9269;50.838;12.094;2023-08-06T01:27:26;21.50;46.60
18287;DHT22;9269;50.838;12.094;2023-08-06T01:30:04;21.50;46.60
18287;DHT22;9269;50.838;12.094;2023-08-06T01:32:44;21.50;46.10
18287;DHT22;9269;50.838;12.094;2023-08-06T01:35:16;21.50;46.00
18287;DHT22;9269;50.838;12.094;2023-08-06T01:37:51;21.40;45.70
18287;DHT22;9269;50.838;12.094;2023-08-06T01:40:22;21.50;45.70
18287;DHT22;9269;50.838;12.094;2023-08-06T01:42:56;21.40;46.20
18287;DHT22;9269;50.838;12.094;2023-08-06T01:45:25;21.40;45.90
18287;DHT22;9269;50.838;12.094;2023-08-06T01:47:57;21.50;46.00
18287;DHT22;9269;50.838;12.094;2023-08-06T01:50:26;21.40;45.80
18287;DHT22;9269;50.838;12.094;2023-08-06T01:52:59;21.50;46.00
18287;DHT22;9269;50.838;12.094;2023-08-06T01:55:30;21.40;45.90
18287;DHT22;9269;50.838;12.094;2023-08-06T01:58:04;21.40;46.30
18287;DHT22;9269;50.838;12.094;2023-08-06T02:00:36;21.40;46.20
18287;DHT22;9269;50.838;12.094;2023-08-06T02:03:07;21.30;46.20
18287;DHT22;9269;50.838;12.094;2023-08-06T02:05:41;21.30;46.10
18287;DHT22;9269;50.838;12.094;2023-08-06T02:08:17;21.30;46.30
18287;DHT22;9269;50.838;12.094;2023-08-06T02:10:48;21.40;46.60
18287;DHT22;9269;50.838;12.094;2023-08-06T02:13:20;21.30;47.10
18287;DHT22;9269;50.838;12.094;2023-08-06T02:15:54;21.30;47.10
18287;DHT22;9269;50.838;12.094;2023-08-06T02:18:27;21.30;47.20
18287;DHT22;9269;50.838;12.094;2023-08-06T02:20:59;21.20;46.70
18287;DHT22;9269;50.838;12.094;2023-08-06T02:23:29;21.20;46.70
18287;DHT22;9269;50.838;12.094;2023-08-06T02:26:00;21.20;47.00
18287;DHT22;9269;50.838;12.094;2023-08-06T02:28:32;21.10;46.70
18287;DHT22;9269;50.838;12.094;2023-08-06T02:31:07;21.10;47.00
18287;DHT22;9269;50.838;12.094;2023-08-06T02:33:39;21.20;46.70
18287;DHT22;9269;50.838;12.094;2023-08-06T02:36:10;21.20;47.10
18287;DHT22;9269;50.838;12.094;2023-08-06T02:38:50;21.10;46.70
18287;DHT22;9269;50.838;12.094;2023-08-06T02:41:23;21.10;47.00
18287;DHT22;9269;50.838;12.094;2023-08-06T02:43:53;21.00;46.60
18287;DHT22;9269;50.838;12.094;2023-08-06T02:46:27;21.00;47.00
18287;DHT22;9269;50.838;12.094;2023-08-06T02:49:00;21.00;46.90
18287;DHT22;9269;50.838;12.094;2023-08-06T02:51:35;21.00;47.00
18287;DHT22;9269;50.838;12.094;2023-08-06T02:54:11;21.00;46.70
18287;DHT22;9269;50.838;12.094;2023-08-06T02:56:46;21.00;46.80
18287;DHT22;9269;50.838;12.094;2023-08-06T02:59:17;21.00;47.50
18287;DHT22;9269;50.838;12.094;2023-08-06T03:01:49;20.90;47.40
18287;DHT22;9269;50.838;12.094;2023-08-06T03:04:21;21.00;47.10
18287;DHT22;9269;50.838;12.094;2023-08-06T03:06:51;20.90;47.20
18287;DHT22;9269;50.838;12.094;2023-08-06T03:09:30;20.90;47.10
18287;DHT22;9269;50.838;12.094;2023-08-06T03:12:02;20.90;47.10
18287;DHT22;9269;50.838;12.094;2023-08-06T03:14:39;20.90;47.70
18287;DHT22;9269;50.838;12.094;2023-08-06T03:17:12;20.90;47.60
18287;DHT22;9269;50.838;12.094;2023-08-06T03:19:44;20.90;48.70
18287;DHT22;9269;50.838;12.094;2023-08-06T03:22:14;20.90;48.30
18287;DHT22;9269;50.838;12.094;2023-08-06T03:24:44;20.80;49.90
18287;DHT22;9269;50.838;12.094;2023-08-06T03:27:14;20.90;48.60
18287;DHT22;9269;50.838;12.094;2023-08-06T03:29:49;20.90;48.70
18287;DHT22;9269;50.838;12.094;2023-08-06T03:32:28;20.80;49.40
18287;DHT22;9269;50.838;12.094;2023-08-06T03:34:58;20.80;49.70
18287;DHT22;9269;50.838;12.094;2023-08-06T03:37:31;20.80;49.60
18287;DHT22;9269;50.838;12.094;2023-08-06T03:40:04;20.90;49.20
18287;DHT22;9269;50.838;12.094;2023-08-06T03:42:33;20.80;49.60
18287;DHT22;9269;50.838;12.094;2023-08-06T03:45:05;20.80;50.40
18287;DHT22;9269;50.838;12.094;2023-08-06T03:47:37;20.80;50.50
18287;DHT22;9269;50.838;12.094;2023-08-06T03:50:12;20.70;50.50
18287;DHT22;9269;50.838;12.094;2023-08-06T03:52:44;20.80;50.10
18287;DHT22;9269;50.838;12.094;2023-08-06T03:55:21;20.70;50.20
18287;DHT22;9269;50.838;12.094;2023-08-06T03:57:55;20.60;50.20
18287;DHT22;9269;50.838;12.094;2023-08-06T04:00:26;20.60;49.90
18287;DHT22;9269;50.838;12.094;2023-08-06T04:02:59;20.70;49.70
18287;DHT22;9269;50.838;12.094;2023-08-06T04:05:33;20.70;49.80
18287;DHT22;9269;50.838;12.094;2023-08-06T04:08:04;20.60;49.50
18287;DHT22;9269;50.838;12.094;2023-08-06T04:10:35;20.60;49.70
18287;DHT22;9269;50.838;12.094;2023-08-06T04:13:10;20.60;49.90
18287;DHT22;9269;50.838;12.094;2023-08-06T04:15:40;20.60;50.20
18287;DHT22;9269;50.838;12.094;2023-08-06T04:18:13;20.50;50.40
18287;DHT22;9269;50.838;12.094;2023-08-06T04:20:46;20.50;50.30
18287;DHT22;9269;50.838;12.094;2023-08-06T04:23:18;20.60;50.60
18287;DHT22;9269;50.838;12.094;2023-08-06T04:25:57;20.60;50.40
18287;DHT22;9269;50.838;12.094;2023-08-06T04:28:28;20.60;50.40
18287;DHT22;9269;50.838;12.094;2023-08-06T04:30:59;20.60;50.10
18287;DHT22;9269;50.838;12.094;2023-08-06T04:33:33;20.60;50.10
18287;DHT22;9269;50.838;12.094;2023-08-06T04:36:04;20.60;50.30
18287;DHT22;9269;50.838;12.094;2023-08-06T04:38:41;20.50;50.40
18287;DHT22;9269;50.838;12.094;2023-08-06T04:41:16;20.50;50.80
18287;DHT22;9269;50.838;12.094;2023-08-06T04:43:50;20.60;51.40
18287;DHT22;9269;50.838;12.094;2023-08-06T04:46:27;20.60;51.40
18287;DHT22;9269;50.838;12.094;2023-08-06T04:49:06;20.60;50.80
18287;DHT22;9269;50.838;12.094;2023-08-06T04:51:36;20.50;51.00
18287;DHT22;9269;50.838;12.094;2023-08-06T04:54:08;20.60;50.90
18287;DHT22;9269;50.838;12.094;2023-08-06T04:56:42;20.60;50.60
18287;DHT22;9269;50.838;12.094;2023-08-06T04:59:12;20.60;50.80
18287;DHT22;9269;50.838;12.094;2023-08-06T05:01:45;20.60;50.50
18287;DHT22;9269;50.838;12.094;2023-08-06T05:04:18;20.80;50.50
18287;DHT22;9269;50.838;12.094;2023-08-06T05:06:51;20.70;51.30
18287;DHT22;9269;50.838;12.094;2023-08-06T05:09:24;20.60;51.10
18287;DHT22;9269;50.838;12.094;2023-08-06T05:12:03;20.60;51.00
18287;DHT22;9269;50.838;12.094;2023-08-06T05:14:34;20.60;51.20
18287;DHT22;9269;50.838;12.094;2023-08-06T05:17:05;20.60;50.70
18287;DHT22;9269;50.838;12.094;2023-08-06T05:19:38;20.60;50.70
18287;DHT22;9269;50.838;12.094;2023-08-06T05:22:13;20.70;50.80
18287;DHT22;9269;50.838;12.094;2023-08-06T05:24:50;20.70;51.10
18287;DHT22;9269;50.838;12.094;2023-08-06T05:27:24;20.80;51.40
18287;DHT22;9269;50.838;12.094;2023-08-06T05:29:55;20.70;51.30
18287;DHT22;9269;50.838;12.094;2023-08-06T05:32:29;20.60;51.20
18287;DHT22;9269;50.838;12.094;2023-08-06T05:35:06;20.60;51.10
18287;DHT22;9269;50.838;12.094;2023-08-06T05:37:37;20.70;50.80
18287;DHT22;9269;50.838;12.094;2023-08-06T05:40:10;20.60;50.90
18287;DHT22;9269;50.838;12.094;2023-08-06T05:42:44;20.80;50.80
18287;DHT22;9269;50.838;12.094;2023-08-06T05:45:16;20.70;51.20
18287;DHT22;9269;50.838;12.094;2023-08-06T05:47:46;20.80;51.30
18287;DHT22;9269;50.838;12.094;2023-08-06T05:50:25;20.80;51.10
18287;DHT22;9269;50.838;12.094;2023-08-06T05:53:02;20.80;51.20
18287;DHT22;9269;50.838;12.094;2023-08-06T05:55:35;20.90;51.00
18287;DHT22;9269;50.838;12.094;2023-08-06T05:58:10;20.90;51.10
18287;DHT22;9269;50.838;12.094;2023-08-06T06:00:45;20.90;49.40
18287;DHT22;9269;50.838;12.094;2023-08-06T06:03:20;20.90;49.80
18287;DHT22;9269;50.838;12.094;2023-08-06T06:06:03;20.90;49.40
18287;DHT22;9269;50.838;12.094;2023-08-06T06:08:40;21.00;49.60
18287;DHT22;9269;50.838;12.094;2023-08-06T06:11:15;21.10;49.40
18287;DHT22;9269;50.838;12.094;2023-08-06T06:13:52;21.00;49.50
18287;DHT22;9269;50.838;12.094;2023-08-06T06:16:28;21.10;49.20
18287;DHT22;9269;50.838;12.094;2023-08-06T06:19:06;21.10;49.30
18287;DHT22;9269;50.838;12.094;2023-08-06T06:21:44;21.10;49.40
18287;DHT22;9269;50.838;12.094;2023-08-06T06:24:18;21.10;49.70
18287;DHT22;9269;50.838;12.094;2023-08-06T06:26:55;21.20;49.20
18287;DHT22;9269;50.838;12.094;2023-08-06T06:29:33;21.20;49.50
18287;DHT22;9269;50.838;12.094;2023-08-06T06:32:04;21.20;49.80
18287;DHT22;9269;50.838;12.094;2023-08-06T06:34:39;21.20;49.90
18287;DHT22;9269;50.838;12.094;2023-08-06T06:37:11;21.20;49.90
18287;DHT22;9269;50.838;12.094;2023-08-06T06:39:45;21.10;49.80
18287;DHT22;9269;50.838;12.094;2023-08-06T06:42:16;21.10;50.00
18287;DHT22;9269;50.838;12.094;2023-08-06T06:44:49;21.20;50.00
18287;DHT22;9269;50.838;12.094;2023-08-06T06:47:22;21.20;50.50
18287;DHT22;9269;50.838;12.094;2023-08-06T06:49:53;21.20;50.20
18287;DHT22;9269;50.838;12.094;2023-08-06T06:52:25;21.20;49.60
18287;DHT22;9269;50.838;12.094;2023-08-06T06:54:58;21.20;50.10
18287;DHT22;9269;50.838;12.094;2023-08-06T06:57:33;21.20;50.00
18287;DHT22;9269;50.838;12.094;2023-08-06T07:00:06;21.20;50.00
18287;DHT22;9269;50.838;12.094;2023-08-06T07:02:37;21.20;50.10
18287;DHT22;9269;50.838;12.094;2023-08-06T07:05:12;21.30;49.70
18287;DHT22;9269;50.838;12.094;2023-08-06T07:07:47;21.20;50.00
18287;DHT22;9269;50.838;12.094;2023-08-06T07:10:28;21.30;49.80
18287;DHT22;9269;50.838;12.094;2023-08-06T07:13:00;21.50;49.70
18287;DHT22;9269;50.838;12.094;2023-08-06T07:15:40;21.40;49.70
18287;DHT22;9269;50.838;12.094;2023-08-06T07:18:14;21.40;49.90
18287;DHT22;9269;50.838;12.094;2023-08-06T07:20:48;21.50;49.80
18287;DHT22;9269;50.838;12.094;2023-08-06T07:23:24;21.50;49.80
18287;DHT22;9269;50.838;12.094;2023-08-06T07:26:01;21.60;49.80
18287;DHT22;9269;50.838;12.094;2023-08-06T07:28:41;21.60;49.50
18287;DHT22;9269;50.838;12.094;2023-08-06T07:31:14;21.60;50.10
18287;DHT22;9269;50.838;12.094;2023-08-06T07:33:54;21.70;49.90
18287;DHT22;9269;50.838;12.094;2023-08-06T07:36:26;21.70;49.50
18287;DHT22;9269;50.838;12.094;2023-08-06T07:38:56;21.70;49.60
18287;DHT22;9269;50.838;12.094;2023-08-06T07:41:31;21.80;49.70
18287;DHT22;9269;50.838;12.094;2023-08-06T07:44:11;21.70;49.40
18287;DHT22;9269;50.838;12.094;2023-08-06T07:46:51;21.80;49.50
18287;DHT22;9269;50.838;12.094;2023-08-06T07:49:27;21.80;49.20
18287;DHT22;9269;50.838;12.094;2023-08-06T07:52:00;21.90;49.20
18287;DHT22;9269;50.838;12.094;2023-08-06T07:54:35;21.90;48.90
18287;DHT22;9269;50.838;12.094;2023-08-06T07:57:08;21.90;49.00
18287;DHT22;9269;50.838;12.094;2023-08-06T07:59:39;21.90;48.70
18287;DHT22;9269;50.838;12.094;2023-08-06T08:02:13;22.00;49.00
18287;DHT22;9269;50.838;12.094;2023-08-06T08:04:47;22.00;49.00
18287;DHT22;9269;50.838;12.094;2023-08-06T08:07:20;22.10;49.00
18287;DHT22;9269;50.838;12.094;2023-08-06T08:09:55;22.10;48.90
18287;DHT22;9269;50.838;12.094;2023-08-06T08:12:28;22.30;48.90
18287;DHT22;9269;50.838;12.094;2023-08-06T08:15:02;22.30;48.80
18287;DHT22;9269;50.838;12.094;2023-08-06T08:17:40;22.30;48.60
18287;DHT22;9269;50.838;12.094;2023-08-06T08:20:11;22.30;48.70
18287;DHT22;9269;50.838;12.094;2023-08-06T08:22:42;22.50;48.20
18287;DHT22;9269;50.838;12.094;2023-08-06T08:25:19;22.60;48.60
18287;DHT22;9269;50.838;12.094;2023-08-06T08:27:52;22.70;48.20
18287;DHT22;9269;50.838;12.094;2023-08-06T08:30:25;22.70;48.30
18287;DHT22;9269;50.838;12.094;2023-08-06T08:33:00;22.80;47.80
18287;DHT22;9269;50.838;12.094;2023-08-06T08:35:38;22.80;48.10
18287;DHT22;9269;50.838;12.094;2023-08-06T08:38:12;22.90;47.80
18287;DHT22;9269;50.838;12.094;2023-08-06T08:40:49;23.00;47.50
18287;DHT22;9269;50.838;12.094;2023-08-06T08:43:29;23.00;47.50
18287;DHT22;9269;50.838;12.094;2023-08-06T08:46:02;23.10;47.30
18287;DHT22;9269;50.838;12.094;2023-08-06T08:48:34;23.20;47.10
18287;DHT22;9269;50.838;12.094;2023-08-06T08:51:09;23.20;46.90
18287;DHT22;9269;50.838;12.094;2023-08-06T08:53:47;23.20;46.80
18287;DHT22;9269;50.838;12.094;2023-08-06T08:56:24;23.20;47.00
18287;DHT22;9269;50.838;12.094;2023-08-06T08:58:54;23.20;46.70
18287;DHT22;9269;50.838;12.094;2023-08-06T09:01:27;23.10;47.00
18287;DHT22;9269;50.838;12.094;2023-08-06T09:04:05;23.20;46.80
18287;DHT22;9269;50.838;12.094;2023-08-06T09:06:41;23.20;46.20
18287;DHT22;9269;50.838;12.094;2023-08-06T09:09:24;23.30;46.20
18287;DHT22;9269;50.838;12.094;2023-08-06T09:12:00;23.30;45.50
18287;DHT22;9269;50.838;12.094;2023-08-06T09:14:32;23.30;45.50
18287;DHT22;9269;50.838;12.094;2023-08-06T09:17:07;23.30;45.60
18287;DHT22;9269;50.838;12.094;2023-08-06T09:19:47;23.30;45.50
18287;DHT22;9269;50.838;12.094;2023-08-06T09:22:18;23.30;45.30
18287;DHT22;9269;50.838;12.094;2023-08-06T09:24:50;23.40;45.20
18287;DHT22;9269;50.838;12.094;2023-08-06T09:27:22;23.50;44.90
18287;DHT22;9269;50.838;12.094;2023-08-06T09:29:58;23.40;44.90
18287;DHT22;9269;50.838;12.094;2023-08-06T09:32:45;23.50;44.60
18287;DHT22;9269;50.838;12.094;2023-08-06T09:35:21;23.70;43.20
18287;DHT22;9269;50.838;12.094;2023-08-06T09:38:05;23.70;43.40
18287;DHT22;9269;50.838;12.094;2023-08-06T09:40:39;23.80;42.90
18287;DHT22;9269;50.838;12.094;2023-08-06T09:43:12;23.80;42.70
18287;DHT22;9269;50.838;12.094;2023-08-06T09:45:47;23.80;42.50
18287;DHT22;9269;50.838;12.094;2023-08-06T09:48:18;24.00;42.50
18287;DHT22;9269;50.838;12.094;2023-08-06T09:50:53;24.00;42.30
18287;DHT22;9269;50.838;12.094;2023-08-06T09:53:32;24.00;42.10
18287;DHT22;9269;50.838;12.094;2023-08-06T09:56:05;24.00;42.20
18287;DHT22;9269;50.838;12.094;2023-08-06T09:58:42;24.10;42.40
18287;DHT22;9269;50.838;12.094;2023-08-06T10:01:12;24.10;42.30
18287;DHT22;9269;50.838;12.094;2023-08-06T10:03:47;24.10;42.30
18287;DHT22;9269;50.838;12.094;2023-08-06T10:06:28;24.20;42.10
18287;DHT22;9269;50.838;12.094;2023-08-06T10:08:58;24.30;42.00
18287;DHT22;9269;50.838;12.094;2023-08-06T10:11:31;24.40;41.80
18287;DHT22;9269;50.838;12.094;2023-08-06T10:14:13;24.60;41.30
18287;DHT22;9269;50.838;12.094;2023-08-06T10:16:54;24.70;40.70
18287;DHT22;9269;50.838;12.094;2023-08-06T10:19:31;24.80;40.60
18287;DHT22;9269;50.838;12.094;2023-08-06T10:22:12;24.80;40.30
18287;DHT22;9269;50.838;12.094;2023-08-06T10:24:48;25.00;40.50
18287;DHT22;9269;50.838;12.094;2023-08-06T10:27:20;25.00;40.20
18287;DHT22;9269;50.838;12.094;2023-08-06T10:30:29;25.00;39.40
18287;DHT22;9269;50.838;12.094;2023-08-06T10:33:06;25.10;39.20
18287;DHT22;9269;50.838;12.094;2023-08-06T10:35:44;25.10;39.60
18287;DHT22;9269;50.838;12.094;2023-08-06T10:38:25;25.10;39.60
18287;DHT22;9269;50.838;12.094;2023-08-06T10:41:04;25.20;38.80
18287;DHT22;9269;50.838;12.094;2023-08-06T10:43:37;25.30;39.20
18287;DHT22;9269;50.838;12.094;2023-08-06T10:46:23;25.40;38.90
18287;DHT22;9269;50.838;12.094;2023-08-06T10:49:08;25.40;38.40
18287;DHT22;9269;50.838;12.094;2023-08-06T10:51:42;25.60;38.30
18287;DHT22;9269;50.838;12.094;2023-08-06T10:54:21;25.80;37.80
18287;DHT22;9269;50.838;12.094;2023-08-06T10:56:55;25.80;37.50
18287;DHT22;9269;50.838;12.094;2023-08-06T10:59:27;26.00;37.70
18287;DHT22;9269;50.838;12.094;2023-08-06T11:01:59;26.10;37.20
18287;DHT22;9269;50.838;12.094;2023-08-06T11:04:31;26.20;36.30
18287;DHT22;9269;50.838;12.094;2023-08-06T11:07:09;26.20;35.90
18287;DHT22;9269;50.838;12.094;2023-08-06T11:09:44;26.20;35.50
18287;DHT22;9269;50.838;12.094;2023-08-06T11:12:18;26.00;35.30
18287;DHT22;9269;50.838;12.094;2023-08-06T11:14:53;26.10;35.30
18287;DHT22;9269;50.838;12.094;2023-08-06T11:17:30;26.10;35.40
18287;DHT22;9269;50.838;12.094;2023-08-06T11:20:06;26.10;35.00
18287;DHT22;9269;50.838;12.094;2023-08-06T11:22:37;26.20;34.60
18287;DHT22;9269;50.838;12.094;2023-08-06T11:25:20;26.40;33.90
18287;DHT22;9269;50.838;12.094;2023-08-06T11:27:57;26.60;33.20
18287;DHT22;9269;50.838;12.094;2023-08-06T11:30:28;26.80;33.20
18287;DHT22;9269;50.838;12.094;2023-08-06T11:33:00;27.00;32.60
18287;DHT22;9269;50.838;12.094;2023-08-06T11:35:34;26.90;32.70
18287;DHT22;9269;50.838;12.094;2023-08-06T11:38:13;26.90;33.40
18287;DHT22;9269;50.838;12.094;2023-08-06T11:40:51;26.70;33.70
18287;DHT22;9269;50.838;12.094;2023-08-06T11:43:24;26.80;33.70
18287;DHT22;9269;50.838;12.094;2023-08-06T11:46:03;27.00;33.70
18287;DHT22;9269;50.838;12.094;2023-08-06T11:48:51;27.40;33.90
18287;DHT22;9269;50.838;12.094;2023-08-06T11:51:24;27.80;34.20
18287;DHT22;9269;50.838;12.094;2023-08-06T11:53:58;28.00;33.70
18287;DHT22;9269;50.838;12.094;2023-08-06T11:56:31;28.00;32.30
18287;DHT22;9269;50.838;12.094;2023-08-06T11:59:08;27.80;32.20
18287;DHT22;9269;50.838;12.094;2023-08-06T12:01:44;27.60;32.00
18287;DHT22;9269;50.838;12.094;2023-08-06T12:04:17;27.30;32.30
18287;DHT22;9269;50.838;12.094;2023-08-06T12:07:05;27.20;32.60
18287;DHT22;9269;50.838;12.094;2023-08-06T12:09:49;27.10;33.10
18287;DHT22;9269;50.838;12.094;2023-08-06T12:12:28;26.90;32.30
18287;DHT22;9269;50.838;12.094;2023-08-06T12:15:07;26.60;32.40
18287;DHT22;9269;50.838;12.094;2023-08-06T12:17:40;26.30;33.00
18287;DHT22;9269;50.838;12.094;2023-08-06T12:20:09;25.90;34.10
18287;DHT22;9269;50.838;12.094;2023-08-06T12:22:49;25.50;34.40
18287;DHT22;9269;50.838;12.094;2023-08-06T12:25:23;25.40;35.20
18287;DHT22;9269;50.838;12.094;2023-08-06T12:27:57;25.20;35.50
18287;DHT22;9269;50.838;12.094;2023-08-06T12:30:29;25.00;35.80
18287;DHT22;9269;50.838;12.094;2023-08-06T12:33:02;24.90;36.40
18287;DHT22;9269;50.838;12.094;2023-08-06T12:35:36;24.80;36.60
18287;DHT22;9269;50.838;12.094;2023-08-06T12:38:13;24.80;36.90
18287;DHT22;9269;50.838;12.094;2023-08-06T12:40:48;24.80;37.30
18287;DHT22;9269;50.838;12.094;2023-08-06T12:43:21;24.70;37.50
18287;DHT22;9269;50.838;12.094;2023-08-06T12:45:56;24.80;37.40
18287;DHT22;9269;50.838;12.094;2023-08-06T12:48:33;24.80;37.20
18287;DHT22;9269;50.838;12.094;2023-08-06T12:51:10;24.90;37.20
18287;DHT22;9269;50.838;12.094;2023-08-06T12:53:40;25.00;37.20
18287;DHT22;9269;50.838;12.094;2023-08-06T12:56:17;25.10;36.70
18287;DHT22;9269;50.838;12.094;2023-08-06T12:58:51;25.40;34.80
18287;DHT22;9269;50.838;12.094;2023-08-06T13:01:23;25.60;34.80
18287;DHT22;9269;50.838;12.094;2023-08-06T13:03:58;26.00;34.30
18287;DHT22;9269;50.838;12.094;2023-08-06T13:06:53;26.30;33.40
18287;DHT22;9269;50.838;12.094;2023-08-06T13:09:30;26.60;32.60
18287;DHT22;9269;50.838;12.094;2023-08-06T13:12:13;26.70;33.00
18287;DHT22;9269;50.838;12.094;2023-08-06T13:14:52;26.70;33.20
18287;DHT22;9269;50.838;12.094;2023-08-06T13:17:27;26.60;33.20
18287;DHT22;9269;50.838;12.094;2023-08-06T13:20:04;26.40;33.30
18287;DHT22;9269;50.838;12.094;2023-08-06T13:22:35;26.30;34.20
18287;DHT22;9269;50.838;12.094;2023-08-06T13:25:11;26.20;34.40
18287;DHT22;9269;50.838;12.094;2023-08-06T13:27:50;26.20;34.70
18287;DHT22;9269;50.838;12.094;2023-08-06T13:30:26;26.40;33.60
18287;DHT22;9269;50.838;12.094;2023-08-06T13:32:58;26.50;34.00
18287;DHT22;9269;50.838;12.094;2023-08-06T13:35:34;26.90;33.70
18287;DHT22;9269;50.838;12.094;2023-08-06T13:38:07;27.30;33.50
18287;DHT22;9269;50.838;12.094;2023-08-06T13:40:37;27.60;33.70
18287;DHT22;9269;50.838;12.094;2023-08-06T13:43:16;27.70;33.30
18287;DHT22;9269;50.838;12.094;2023-08-06T13:45:51;28.00;32.80
18287;DHT22;9269;50.838;12.094;2023-08-06T13:48:27;27.90;32.50
18287;DHT22;9269;50.838;12.094;2023-08-06T13:51:04;27.80;32.60
18287;DHT22;9269;50.838;12.094;2023-08-06T13:53:48;27.80;32.80
18287;DHT22;9269;50.838;12.094;2023-08-06T13:56:24;27.80;33.10
18287;DHT22;9269;50.838;12.094;2023-08-06T13:58:54;28.00;32.70
18287;DHT22;9269;50.838;12.094;2023-08-06T14:01:37;28.00;33.00
18287;DHT22;9269;50.838;12.094;2023-08-06T14:04:30;28.00;32.70
18287;DHT22;9269;50.838;12.094;2023-08-06T14:07:09;28.00;32.00
18287;DHT22;9269;50.838;12.094;2023-08-06T14:09:43;27.90;32.80
18287;DHT22;9269;50.838;12.094;2023-08-06T14:12:23;27.80;32.60
18287;DHT22;9269;50.838;12.094;2023-08-06T14:14:58;27.70;32.50
18287;DHT22;9269;50.838;12.094;2023-08-06T14:17:44;27.50;32.30
18287;DHT22;9269;50.838;12.094;2023-08-06T14:20:14;27.40;32.80
18287;DHT22;9269;50.838;12.094;2023-08-06T14:22:52;27.10;32.70
18287;DHT22;9269;50.838;12.094;2023-08-06T14:25:25;26.70;33.20
18287;DHT22;9269;50.838;12.094;2023-08-06T14:28:04;26.50;33.40
18287;DHT22;9269;50.838;12.094;2023-08-06T14:30:36;26.20;34.50
18287;DHT22;9269;50.838;12.094;2023-08-06T14:33:12;26.20;34.60
18287;DHT22;9269;50.838;12.094;2023-08-06T14:35:59;26.00;35.00
18287;DHT22;9269;50.838;12.094;2023-08-06T14:38:41;25.80;35.40
18287;DHT22;9269;50.838;12.094;2023-08-06T14:41:38;25.70;35.60
18287;DHT22;9269;50.838;12.094;2023-08-06T14:44:12;25.70;35.90
18287;DHT22;9269;50.838;12.094;2023-08-06T14:46:48;25.60;36.20
18287;DHT22;9269;50.838;12.094;2023-08-06T14:49:29;25.70;36.30
18287;DHT22;9269;50.838;12.094;2023-08-06T14:52:13;25.70;37.10
18287;DHT22;9269;50.838;12.094;2023-08-06T14:54:45;25.80;37.20
18287;DHT22;9269;50.838;12.094;2023-08-06T14:57:23;25.70;37.60
18287;DHT22;9269;50.838;12.094;2023-08-06T15:00:04;25.60;37.60
18287;DHT22;9269;50.838;12.094;2023-08-06T15:02:44;25.50;37.90
18287;DHT22;9269;50.838;12.094;2023-08-06T15:05:18;25.50;38.00
18287;DHT22;9269;50.838;12.094;2023-08-06T15:07:53;25.50;38.00
18287;DHT22;9269;50.838;12.094;2023-08-06T15:10:41;25.60;38.10
18287;DHT22;9269;50.838;12.094;2023-08-06T15:13:14;25.50;38.00
18287;DHT22;9269;50.838;12.094;2023-08-06T15:15:50;25.40;38.10
18287;DHT22;9269;50.838;12.094;2023-08-06T15:18:28;25.40;38.40
18287;DHT22;9269;50.838;12.094;2023-08-06T15:21:01;25.40;38.30
18287;DHT22;9269;50.838;12.094;2023-08-06T15:23:38;25.40;38.10
18287;DHT22;9269;50.838;12.094;2023-08-06T15:26:15;25.40;38.50
18287;DHT22;9269;50.838;12.094;2023-08-06T15:28:48;25.40;38.60
18287;DHT22;9269;50.838;12.094;2023-08-06T15:31:35;25.50;38.70
18287;DHT22;9269;50.838;12.094;2023-08-06T15:34:08;25.50;38.60
18287;DHT22;9269;50.838;12.094;2023-08-06T15:36:55;25.50;38.60
18287;DHT22;9269;50.838;12.094;2023-08-06T15:39:35;25.50;38.80
18287;DHT22;9269;50.838;12.094;2023-08-06T15:42:07;25.50;38.80
18287;DHT22;9269;50.838;12.094;2023-08-06T15:44:43;25.40;38.70
18287;DHT22;9269;50.838;12.094;2023-08-06T15:47:25;25.40;39.30
18287;DHT22;9269;50.838;12.094;2023-08-06T15:50:04;25.20;38.70
18287;DHT22;9269;50.838;12.094;2023-08-06T15:52:46;25.20;38.70
18287;DHT22;9269;50.838;12.094;2023-08-06T15:55:18;25.10;38.70
18287;DHT22;9269;50.838;12.094;2023-08-06T15:57:52;25.10;38.80
18287;DHT22;9269;50.838;12.094;2023-08-06T16:00:28;25.00;38.90
18287;DHT22;9269;50.838;12.094;2023-08-06T16:03:05;24.90;39.10
18287;DHT22;9269;50.838;12.094;2023-08-06T16:05:39;24.80;39.20
18287;DHT22;9269;50.838;12.094;2023-08-06T16:08:24;24.80;39.00
18287;DHT22;9269;50.838;12.094;2023-08-06T16:10:58;24.70;39.70
18287;DHT22;9269;50.838;12.094;2023-08-06T16:13:33;24.50;39.80
18287;DHT22;9269;50.838;12.094;2023-08-06T16:16:05;24.50;39.80
18287;DHT22;9269;50.838;12.094;2023-08-06T16:18:36;24.40;39.90